sensor_id;sensor_type;location;lat;lon;timestamp;P1;durP1;ratioP1;P2;durP2;ratioP2
21754;SDS011;11039;50.028;19.938;2022-07-15T00:00:28;2.92;;;2.63;;
21754;SDS011;11039;50.028;19.938;2022-07-15T00:02:54;3.35;;;2.50;;
21754;SDS011;11039;50.028;19.938;2022-07-15T00:05:20;3.63;;;2.50;;
21754;SDS011;11039;50.028;19.938;2022-07-15T00:07:46;2.67;;;2.35;;
21754;SDS011;11039;50.028;19.938;2022-07-15T00:10:12;2.83;;;2.25;;
21754;SDS011;11039;50.028;19.938;2022-07-15T00:12:59;2.88;;;2.28;;
21754;SDS011;11039;50.028;19.938;2022-07-15T00:15:26;2.70;;;2.30;;
21754;SDS011;11039;50.028;19.938;2022-07-15T00:17:53;3.10;;;2.25;;
21754;SDS011;11039;50.028;19.938;2022-07-15T00:20:20;2.65;;;2.40;;
21754;SDS011;11039;50.028;19.938;2022-07-15T00:22:46;2.58;;;2.30;;
21754;SDS011;11039;50.028;19.938;2022-07-15T00:25:13;3.85;;;2.38;;
21754;SDS011;11039;50.028;19.938;2022-07-15T00:27:56;4.35;;;2.55;;
21754;SDS011;11039;50.028;19.938;2022-07-15T00:30:23;3.22;;;2.28;;
21754;SDS011;11039;50.028;19.938;2022-07-15T00:32:49;3.13;;;2.58;;
21754;SDS011;11039;50.028;19.938;2022-07-15T00:35:15;3.03;;;2.30;;
21754;SDS011;11039;50.028;19.938;2022-07-15T00:37:41;2.70;;;2.50;;
21754;SDS011;11039;50.028;19.938;2022-07-15T00:40:07;2.75;;;2.50;;
21754;SDS011;11039;50.028;19.938;2022-07-15T00:42:33;3.45;;;2.30;;
21754;SDS011;11039;50.028;19.938;2022-07-15T00:45:09;2.95;;;2.65;;
21754;SDS011;11039;50.028;19.938;2022-07-15T00:47:35;3.53;;;2.60;;
21754;SDS011;11039;50.028;19.938;2022-07-15T00:50:01;3.92;;;2.28;;
21754;SDS011;11039;50.028;19.938;2022-07-15T00:52:27;2.30;;;2.10;;
21754;SDS011;11039;50.028;19.938;2022-07-15T00:54:54;3.33;;;2.33;;
21754;SDS011;11039;50.028;19.938;2022-07-15T00:57:21;2.40;;;2.20;;
21754;SDS011;11039;50.028;19.938;2022-07-15T00:59:48;2.40;;;2.20;;
21754;SDS011;11039;50.028;19.938;2022-07-15T01:02:15;3.90;;;2.50;;
21754;SDS011;11039;50.028;19.938;2022-07-15T01:04:41;3.50;;;2.20;;
21754;SDS011;11039;50.028;19.938;2022-07-15T01:07:07;3.60;;;2.28;;
21754;SDS011;11039;50.028;19.938;2022-07-15T01:09:33;2.42;;;2.22;;
21754;SDS011;11039;50.028;19.938;2022-07-15T01:11:59;2.85;;;2.20;;
21754;SDS011;11039;50.028;19.938;2022-07-15T01:14:25;2.95;;;2.03;;
21754;SDS011;11039;50.028;19.938;2022-07-15T01:16:51;2.53;;;2.30;;
21754;SDS011;11039;50.028;19.938;2022-07-15T01:19:18;3.67;;;2.45;;
21754;SDS011;11039;50.028;19.938;2022-07-15T01:21:44;2.85;;;2.38;;
21754;SDS011;11039;50.028;19.938;2022-07-15T01:24:10;3.00;;;2.50;;
21754;SDS011;11039;50.028;19.938;2022-07-15T01:26:37;2.90;;;2.20;;
21754;SDS011;11039;50.028;19.938;2022-07-15T01:29:03;3.13;;;2.40;;
21754;SDS011;11039;50.028;19.938;2022-07-15T01:31:29;3.15;;;2.40;;
21754;SDS011;11039;50.028;19.938;2022-07-15T01:33:55;3.20;;;2.20;;
21754;SDS011;11039;50.028;19.938;2022-07-15T01:36:21;2.70;;;2.13;;
21754;SDS011;11039;50.028;19.938;2022-07-15T01:38:47;2.83;;;2.40;;
21754;SDS011;11039;50.028;19.938;2022-07-15T01:41:13;2.80;;;2.50;;
21754;SDS011;11039;50.028;19.938;2022-07-15T01:43:39;4.05;;;2.15;;
21754;SDS011;11039;50.028;19.938;2022-07-15T01:46:05;3.15;;;2.35;;
21754;SDS011;11039;50.028;19.938;2022-07-15T01:48:31;2.72;;;2.20;;
21754;SDS011;11039;50.028;19.938;2022-07-15T01:51:16;3.45;;;2.20;;
21754;SDS011;11039;50.028;19.938;2022-07-15T01:53:42;3.55;;;2.28;;
21754;SDS011;11039;50.028;19.938;2022-07-15T01:56:08;4.90;;;2.50;;
21754;SDS011;11039;50.028;19.938;2022-07-15T01:58:34;3.40;;;2.10;;
21754;SDS011;11039;50.028;19.938;2022-07-15T02:01:00;2.95;;;2.20;;
21754;SDS011;11039;50.028;19.938;2022-07-15T02:03:26;3.20;;;2.50;;
21754;SDS011;11039;50.028;19.938;2022-07-15T02:05:52;4.82;;;2.55;;
21754;SDS011;11039;50.028;19.938;2022-07-15T02:08:18;3.10;;;2.40;;
21754;SDS011;11039;50.028;19.938;2022-07-15T02:10:44;4.68;;;2.40;;
21754;SDS011;11039;50.028;19.938;2022-07-15T02:13:12;6.00;;;2.22;;
21754;SDS011;11039;50.028;19.938;2022-07-15T02:15:39;3.00;;;2.70;;
21754;SDS011;11039;50.028;19.938;2022-07-15T02:18:05;4.32;;;2.25;;
21754;SDS011;11039;50.028;19.938;2022-07-15T02:20:32;3.22;;;2.40;;
21754;SDS011;11039;50.028;19.938;2022-07-15T02:22:59;4.20;;;2.40;;
21754;SDS011;11039;50.028;19.938;2022-07-15T02:25:27;4.07;;;2.60;;
21754;SDS011;11039;50.028;19.938;2022-07-15T02:27:54;2.63;;;2.28;;
21754;SDS011;11039;50.028;19.938;2022-07-15T02:30:24;4.75;;;2.60;;
21754;SDS011;11039;50.028;19.938;2022-07-15T02:32:50;2.92;;;2.30;;
21754;SDS011;11039;50.028;19.938;2022-07-15T02:35:16;3.28;;;2.17;;
21754;SDS011;11039;50.028;19.938;2022-07-15T02:37:43;3.85;;;2.67;;
21754;SDS011;11039;50.028;19.938;2022-07-15T02:40:09;3.97;;;2.35;;
21754;SDS011;11039;50.028;19.938;2022-07-15T02:42:35;2.72;;;2.42;;
21754;SDS011;11039;50.028;19.938;2022-07-15T02:45:01;3.50;;;2.33;;
21754;SDS011;11039;50.028;19.938;2022-07-15T02:47:28;2.63;;;2.20;;
21754;SDS011;11039;50.028;19.938;2022-07-15T02:49:53;3.05;;;2.22;;
21754;SDS011;11039;50.028;19.938;2022-07-15T02:52:20;3.53;;;2.45;;
21754;SDS011;11039;50.028;19.938;2022-07-15T02:54:46;2.85;;;2.22;;
21754;SDS011;11039;50.028;19.938;2022-07-15T02:57:12;3.38;;;2.40;;
21754;SDS011;11039;50.028;19.938;2022-07-15T02:59:38;2.88;;;2.53;;
21754;SDS011;11039;50.028;19.938;2022-07-15T03:02:04;3.03;;;2.30;;
21754;SDS011;11039;50.028;19.938;2022-07-15T03:04:30;2.67;;;2.30;;
21754;SDS011;11039;50.028;19.938;2022-07-15T03:06:56;3.33;;;2.80;;
21754;SDS011;11039;50.028;19.938;2022-07-15T03:09:22;3.53;;;2.55;;
21754;SDS011;11039;50.028;19.938;2022-07-15T03:11:48;5.95;;;3.08;;
21754;SDS011;11039;50.028;19.938;2022-07-15T03:14:14;5.07;;;2.90;;
21754;SDS011;11039;50.028;19.938;2022-07-15T03:16:40;4.82;;;2.92;;
21754;SDS011;11039;50.028;19.938;2022-07-15T03:19:06;4.60;;;2.72;;
21754;SDS011;11039;50.028;19.938;2022-07-15T03:21:33;4.50;;;3.22;;
21754;SDS011;11039;50.028;19.938;2022-07-15T03:23:59;5.35;;;3.35;;
21754;SDS011;11039;50.028;19.938;2022-07-15T03:26:25;4.20;;;3.42;;
21754;SDS011;11039;50.028;19.938;2022-07-15T03:28:51;5.45;;;3.10;;
21754;SDS011;11039;50.028;19.938;2022-07-15T03:31:17;6.45;;;3.70;;
21754;SDS011;11039;50.028;19.938;2022-07-15T03:33:43;4.15;;;3.30;;
21754;SDS011;11039;50.028;19.938;2022-07-15T03:36:09;5.78;;;3.40;;
21754;SDS011;11039;50.028;19.938;2022-07-15T03:38:35;4.85;;;3.40;;
21754;SDS011;11039;50.028;19.938;2022-07-15T03:41:01;4.88;;;3.92;;
21754;SDS011;11039;50.028;19.938;2022-07-15T03:43:27;8.52;;;3.72;;
21754;SDS011;11039;50.028;19.938;2022-07-15T03:45:55;6.43;;;3.67;;
21754;SDS011;11039;50.028;19.938;2022-07-15T03:48:21;4.50;;;3.63;;
21754;SDS011;11039;50.028;19.938;2022-07-15T03:50:47;6.18;;;4.07;;
21754;SDS011;11039;50.028;19.938;2022-07-15T03:53:13;4.30;;;3.78;;
21754;SDS011;11039;50.028;19.938;2022-07-15T03:55:39;7.55;;;4.22;;
21754;SDS011;11039;50.028;19.938;2022-07-15T03:58:05;6.15;;;4.55;;
21754;SDS011;11039;50.028;19.938;2022-07-15T04:00:31;7.50;;;4.40;;
21754;SDS011;11039;50.028;19.938;2022-07-15T04:02:57;7.85;;;4.53;;
21754;SDS011;11039;50.028;19.938;2022-07-15T04:05:23;5.55;;;4.53;;
21754;SDS011;11039;50.028;19.938;2022-07-15T04:07:49;7.35;;;4.90;;
21754;SDS011;11039;50.028;19.938;2022-07-15T04:10:15;5.90;;;4.85;;
21754;SDS011;11039;50.028;19.938;2022-07-15T04:12:42;5.15;;;4.25;;
21754;SDS011;11039;50.028;19.938;2022-07-15T04:15:08;6.97;;;4.53;;
21754;SDS011;11039;50.028;19.938;2022-07-15T04:17:34;7.32;;;5.60;;
21754;SDS011;11039;50.028;19.938;2022-07-15T04:20:00;5.55;;;4.80;;
21754;SDS011;11039;50.028;19.938;2022-07-15T04:22:26;6.68;;;5.30;;
21754;SDS011;11039;50.028;19.938;2022-07-15T04:24:52;7.57;;;5.00;;
21754;SDS011;11039;50.028;19.938;2022-07-15T04:27:18;8.23;;;5.47;;
21754;SDS011;11039;50.028;19.938;2022-07-15T04:29:44;6.03;;;5.35;;
21754;SDS011;11039;50.028;19.938;2022-07-15T04:32:10;7.75;;;5.32;;
21754;SDS011;11039;50.028;19.938;2022-07-15T04:34:36;7.05;;;5.03;;
21754;SDS011;11039;50.028;19.938;2022-07-15T04:37:02;7.28;;;5.60;;
21754;SDS011;11039;50.028;19.938;2022-07-15T04:39:28;9.68;;;5.38;;
21754;SDS011;11039;50.028;19.938;2022-07-15T04:41:54;9.00;;;5.93;;
21754;SDS011;11039;50.028;19.938;2022-07-15T04:44:20;8.70;;;5.90;;
21754;SDS011;11039;50.028;19.938;2022-07-15T04:46:46;8.75;;;6.05;;
21754;SDS011;11039;50.028;19.938;2022-07-15T04:49:12;7.40;;;5.97;;
21754;SDS011;11039;50.028;19.938;2022-07-15T04:51:57;8.50;;;6.00;;
21754;SDS011;11039;50.028;19.938;2022-07-15T04:54:23;9.85;;;6.60;;
21754;SDS011;11039;50.028;19.938;2022-07-15T04:56:49;8.35;;;7.03;;
21754;SDS011;11039;50.028;19.938;2022-07-15T04:59:15;7.30;;;6.30;;
21754;SDS011;11039;50.028;19.938;2022-07-15T05:01:41;8.10;;;6.70;;
21754;SDS011;11039;50.028;19.938;2022-07-15T05:04:07;7.60;;;6.80;;
21754;SDS011;11039;50.028;19.938;2022-07-15T05:06:33;7.68;;;6.88;;
21754;SDS011;11039;50.028;19.938;2022-07-15T05:08:59;11.07;;;7.63;;
21754;SDS011;11039;50.028;19.938;2022-07-15T05:11:25;9.10;;;7.97;;
21754;SDS011;11039;50.028;19.938;2022-07-15T05:13:51;9.35;;;8.13;;
21754;SDS011;11039;50.028;19.938;2022-07-15T05:16:18;9.70;;;8.25;;
21754;SDS011;11039;50.028;19.938;2022-07-15T05:18:44;8.75;;;7.82;;
21754;SDS011;11039;50.028;19.938;2022-07-15T05:21:10;9.23;;;8.32;;
21754;SDS011;11039;50.028;19.938;2022-07-15T05:23:36;9.45;;;8.02;;
21754;SDS011;11039;50.028;19.938;2022-07-15T05:26:02;9.20;;;8.40;;
21754;SDS011;11039;50.028;19.938;2022-07-15T05:28:28;10.52;;;9.05;;
21754;SDS011;11039;50.028;19.938;2022-07-15T05:30:54;9.82;;;8.48;;
21754;SDS011;11039;50.028;19.938;2022-07-15T05:33:20;8.73;;;7.82;;
21754;SDS011;11039;50.028;19.938;2022-07-15T05:35:47;8.55;;;7.70;;
21754;SDS011;11039;50.028;19.938;2022-07-15T05:38:13;9.15;;;7.70;;
21754;SDS011;11039;50.028;19.938;2022-07-15T05:40:39;8.38;;;7.22;;
21754;SDS011;11039;50.028;19.938;2022-07-15T05:43:05;8.43;;;7.50;;
21754;SDS011;11039;50.028;19.938;2022-07-15T05:45:31;9.40;;;7.43;;
21754;SDS011;11039;50.028;19.938;2022-07-15T05:47:57;11.15;;;7.45;;
21754;SDS011;11039;50.028;19.938;2022-07-15T05:50:23;7.63;;;6.85;;
21754;SDS011;11039;50.028;19.938;2022-07-15T05:52:49;7.18;;;6.47;;
21754;SDS011;11039;50.028;19.938;2022-07-15T05:55:16;8.02;;;6.78;;
21754;SDS011;11039;50.028;19.938;2022-07-15T05:57:42;8.18;;;6.70;;
21754;SDS011;11039;50.028;19.938;2022-07-15T06:00:08;7.55;;;6.55;;
21754;SDS011;11039;50.028;19.938;2022-07-15T06:02:34;8.35;;;6.68;;
21754;SDS011;11039;50.028;19.938;2022-07-15T06:05:00;7.18;;;6.10;;
21754;SDS011;11039;50.028;19.938;2022-07-15T06:07:26;7.78;;;6.18;;
21754;SDS011;11039;50.028;19.938;2022-07-15T06:09:52;12.30;;;6.00;;
21754;SDS011;11039;50.028;19.938;2022-07-15T06:12:18;7.72;;;5.75;;
21754;SDS011;11039;50.028;19.938;2022-07-15T06:14:44;7.25;;;5.90;;
21754;SDS011;11039;50.028;19.938;2022-07-15T06:17:10;7.95;;;6.03;;
21754;SDS011;11039;50.028;19.938;2022-07-15T06:19:36;6.10;;;5.13;;
21754;SDS011;11039;50.028;19.938;2022-07-15T06:22:03;7.75;;;5.40;;
21754;SDS011;11039;50.028;19.938;2022-07-15T06:24:29;7.18;;;5.80;;
21754;SDS011;11039;50.028;19.938;2022-07-15T06:26:55;6.15;;;4.85;;
21754;SDS011;11039;50.028;19.938;2022-07-15T06:29:21;8.00;;;5.45;;
21754;SDS011;11039;50.028;19.938;2022-07-15T06:31:47;7.05;;;5.30;;
21754;SDS011;11039;50.028;19.938;2022-07-15T06:34:13;5.32;;;4.82;;
21754;SDS011;11039;50.028;19.938;2022-07-15T06:36:39;5.78;;;4.80;;
21754;SDS011;11039;50.028;19.938;2022-07-15T06:39:06;5.05;;;4.32;;
21754;SDS011;11039;50.028;19.938;2022-07-15T06:41:32;5.57;;;4.60;;
21754;SDS011;11039;50.028;19.938;2022-07-15T06:43:59;5.35;;;4.72;;
21754;SDS011;11039;50.028;19.938;2022-07-15T06:46:25;5.85;;;4.60;;
21754;SDS011;11039;50.028;19.938;2022-07-15T06:48:51;6.15;;;4.47;;
21754;SDS011;11039;50.028;19.938;2022-07-15T06:51:17;6.68;;;4.70;;
21754;SDS011;11039;50.028;19.938;2022-07-15T06:53:43;5.32;;;4.10;;
21754;SDS011;11039;50.028;19.938;2022-07-15T06:56:09;5.97;;;4.38;;
21754;SDS011;11039;50.028;19.938;2022-07-15T06:58:35;5.07;;;3.95;;
21754;SDS011;11039;50.028;19.938;2022-07-15T07:01:01;6.82;;;4.22;;
21754;SDS011;11039;50.028;19.938;2022-07-15T07:03:27;5.75;;;4.45;;
21754;SDS011;11039;50.028;19.938;2022-07-15T07:05:54;5.35;;;4.10;;
21754;SDS011;11039;50.028;19.938;2022-07-15T07:08:20;7.00;;;4.28;;
21754;SDS011;11039;50.028;19.938;2022-07-15T07:10:46;5.80;;;4.55;;
21754;SDS011;11039;50.028;19.938;2022-07-15T07:13:12;5.90;;;4.53;;
21754;SDS011;11039;50.028;19.938;2022-07-15T07:15:38;4.60;;;4.10;;
21754;SDS011;11039;50.028;19.938;2022-07-15T07:18:04;5.63;;;5.10;;
21754;SDS011;11039;50.028;19.938;2022-07-15T07:20:30;6.20;;;5.15;;
21754;SDS011;11039;50.028;19.938;2022-07-15T07:22:56;5.22;;;4.72;;
21754;SDS011;11039;50.028;19.938;2022-07-15T07:25:22;6.70;;;5.35;;
21754;SDS011;11039;50.028;19.938;2022-07-15T07:27:48;7.15;;;4.72;;
21754;SDS011;11039;50.028;19.938;2022-07-15T07:30:15;5.70;;;4.90;;
21754;SDS011;11039;50.028;19.938;2022-07-15T07:32:41;8.05;;;5.45;;
21754;SDS011;11039;50.028;19.938;2022-07-15T07:35:07;7.32;;;4.97;;
21754;SDS011;11039;50.028;19.938;2022-07-15T07:37:34;4.95;;;4.32;;
21754;SDS011;11039;50.028;19.938;2022-07-15T07:40:00;6.50;;;4.82;;
21754;SDS011;11039;50.028;19.938;2022-07-15T07:42:26;5.25;;;4.57;;
21754;SDS011;11039;50.028;19.938;2022-07-15T07:44:52;6.88;;;5.40;;
21754;SDS011;11039;50.028;19.938;2022-07-15T07:47:18;7.22;;;4.57;;
21754;SDS011;11039;50.028;19.938;2022-07-15T07:49:46;6.55;;;4.68;;
21754;SDS011;11039;50.028;19.938;2022-07-15T07:52:12;5.18;;;4.45;;
21754;SDS011;11039;50.028;19.938;2022-07-15T07:54:40;7.43;;;4.20;;
21754;SDS011;11039;50.028;19.938;2022-07-15T07:57:06;7.30;;;4.50;;
21754;SDS011;11039;50.028;19.938;2022-07-15T07:59:32;5.57;;;4.53;;
21754;SDS011;11039;50.028;19.938;2022-07-15T08:01:58;6.40;;;4.13;;
21754;SDS011;11039;50.028;19.938;2022-07-15T08:04:24;5.18;;;3.65;;
21754;SDS011;11039;50.028;19.938;2022-07-15T08:06:50;8.55;;;3.72;;
21754;SDS011;11039;50.028;19.938;2022-07-15T08:09:17;7.15;;;3.50;;
21754;SDS011;11039;50.028;19.938;2022-07-15T08:11:43;6.35;;;3.80;;
21754;SDS011;11039;50.028;19.938;2022-07-15T08:14:10;6.53;;;3.45;;
21754;SDS011;11039;50.028;19.938;2022-07-15T08:16:36;5.20;;;3.60;;
21754;SDS011;11039;50.028;19.938;2022-07-15T08:19:07;5.00;;;3.30;;
21754;SDS011;11039;50.028;19.938;2022-07-15T08:21:33;5.00;;;3.75;;
21754;SDS011;11039;50.028;19.938;2022-07-15T08:23:59;5.32;;;3.75;;
21754;SDS011;11039;50.028;19.938;2022-07-15T08:26:25;5.43;;;3.40;;
21754;SDS011;11039;50.028;19.938;2022-07-15T08:28:51;4.40;;;3.35;;
21754;SDS011;11039;50.028;19.938;2022-07-15T08:31:18;4.72;;;3.22;;
21754;SDS011;11039;50.028;19.938;2022-07-15T08:33:44;4.18;;;2.85;;
21754;SDS011;11039;50.028;19.938;2022-07-15T08:36:10;4.05;;;2.90;;
21754;SDS011;11039;50.028;19.938;2022-07-15T08:38:37;3.03;;;2.30;;
21754;SDS011;11039;50.028;19.938;2022-07-15T08:41:03;4.05;;;3.00;;
21754;SDS011;11039;50.028;19.938;2022-07-15T08:43:29;5.28;;;2.80;;
21754;SDS011;11039;50.028;19.938;2022-07-15T08:45:57;6.07;;;2.90;;
21754;SDS011;11039;50.028;19.938;2022-07-15T08:48:29;4.47;;;2.85;;
21754;SDS011;11039;50.028;19.938;2022-07-15T08:50:56;3.80;;;2.70;;
21754;SDS011;11039;50.028;19.938;2022-07-15T08:53:22;6.28;;;2.95;;
21754;SDS011;11039;50.028;19.938;2022-07-15T08:55:48;6.25;;;3.05;;
21754;SDS011;11039;50.028;19.938;2022-07-15T08:58:14;4.85;;;3.47;;
21754;SDS011;11039;50.028;19.938;2022-07-15T09:00:40;8.00;;;3.58;;
21754;SDS011;11039;50.028;19.938;2022-07-15T09:03:06;6.60;;;2.97;;
21754;SDS011;11039;50.028;19.938;2022-07-15T09:05:34;4.13;;;3.25;;
21754;SDS011;11039;50.028;19.938;2022-07-15T09:08:05;5.68;;;3.33;;
21754;SDS011;11039;50.028;19.938;2022-07-15T09:13:07;4.95;;;3.55;;
21754;SDS011;11039;50.028;19.938;2022-07-15T09:15:36;4.93;;;3.40;;
21754;SDS011;11039;50.028;19.938;2022-07-15T09:18:10;5.95;;;3.47;;
21754;SDS011;11039;50.028;19.938;2022-07-15T09:20:38;5.68;;;3.60;;
21754;SDS011;11039;50.028;19.938;2022-07-15T09:23:04;5.60;;;3.85;;
21754;SDS011;11039;50.028;19.938;2022-07-15T09:25:31;5.50;;;3.65;;
21754;SDS011;11039;50.028;19.938;2022-07-15T09:27:58;4.50;;;3.60;;
21754;SDS011;11039;50.028;19.938;2022-07-15T09:30:33;5.88;;;3.58;;
21754;SDS011;11039;50.028;19.938;2022-07-15T09:33:25;5.00;;;3.30;;
21754;SDS011;11039;50.028;19.938;2022-07-15T09:36:10;6.85;;;4.03;;
21754;SDS011;11039;50.028;19.938;2022-07-15T09:41:31;6.13;;;3.80;;
21754;SDS011;11039;50.028;19.938;2022-07-15T09:43:59;4.47;;;3.40;;
21754;SDS011;11039;50.028;19.938;2022-07-15T09:46:49;5.53;;;3.50;;
21754;SDS011;11039;50.028;19.938;2022-07-15T09:49:17;7.22;;;3.15;;
21754;SDS011;11039;50.028;19.938;2022-07-15T09:51:59;5.75;;;3.17;;
21754;SDS011;11039;50.028;19.938;2022-07-15T09:54:26;4.63;;;2.67;;
21754;SDS011;11039;50.028;19.938;2022-07-15T09:56:56;5.00;;;3.45;;
21754;SDS011;11039;50.028;19.938;2022-07-15T09:59:25;4.30;;;3.38;;
21754;SDS011;11039;50.028;19.938;2022-07-15T10:01:52;5.72;;;3.80;;
21754;SDS011;11039;50.028;19.938;2022-07-15T10:04:21;6.10;;;3.72;;
21754;SDS011;11039;50.028;19.938;2022-07-15T10:06:48;4.30;;;3.10;;
21754;SDS011;11039;50.028;19.938;2022-07-15T10:09:18;5.43;;;3.45;;
21754;SDS011;11039;50.028;19.938;2022-07-15T10:11:47;4.35;;;3.20;;
21754;SDS011;11039;50.028;19.938;2022-07-15T10:14:28;6.30;;;3.88;;
21754;SDS011;11039;50.028;19.938;2022-07-15T10:17:02;5.30;;;4.20;;
21754;SDS011;11039;50.028;19.938;2022-07-15T10:24:56;4.55;;;3.47;;
21754;SDS011;11039;50.028;19.938;2022-07-15T10:27:44;4.05;;;3.25;;
21754;SDS011;11039;50.028;19.938;2022-07-15T10:30:12;5.35;;;3.58;;
21754;SDS011;11039;50.028;19.938;2022-07-15T10:35:35;5.05;;;3.38;;
21754;SDS011;11039;50.028;19.938;2022-07-15T10:40:55;8.70;;;3.72;;
21754;SDS011;11039;50.028;19.938;2022-07-15T10:43:24;5.38;;;4.03;;
21754;SDS011;11039;50.028;19.938;2022-07-15T10:46:16;5.95;;;3.80;;
21754;SDS011;11039;50.028;19.938;2022-07-15T10:48:46;5.47;;;3.63;;
21754;SDS011;11039;50.028;19.938;2022-07-15T10:51:13;5.75;;;4.18;;
21754;SDS011;11039;50.028;19.938;2022-07-15T10:53:59;5.00;;;3.80;;
21754;SDS011;11039;50.028;19.938;2022-07-15T10:59:07;7.47;;;4.88;;
21754;SDS011;11039;50.028;19.938;2022-07-15T11:01:36;8.57;;;4.80;;
21754;SDS011;11039;50.028;19.938;2022-07-15T11:04:11;46.83;;;5.95;;
21754;SDS011;11039;50.028;19.938;2022-07-15T11:12:07;6.00;;;3.97;;
21754;SDS011;11039;50.028;19.938;2022-07-15T11:14:41;6.97;;;3.90;;
21754;SDS011;11039;50.028;19.938;2022-07-15T11:17:08;5.50;;;4.15;;
21754;SDS011;11039;50.028;19.938;2022-07-15T11:19:34;5.10;;;3.50;;
21754;SDS011;11039;50.028;19.938;2022-07-15T11:22:01;5.55;;;3.80;;
21754;SDS011;11039;50.028;19.938;2022-07-15T11:24:27;7.40;;;3.95;;
21754;SDS011;11039;50.028;19.938;2022-07-15T11:26:53;5.82;;;3.67;;
21754;SDS011;11039;50.028;19.938;2022-07-15T11:29:19;5.90;;;3.47;;
21754;SDS011;11039;50.028;19.938;2022-07-15T11:31:45;5.20;;;3.97;;
21754;SDS011;11039;50.028;19.938;2022-07-15T11:34:13;7.20;;;4.53;;
21754;SDS011;11039;50.028;19.938;2022-07-15T11:36:39;6.22;;;4.25;;
21754;SDS011;11039;50.028;19.938;2022-07-15T11:39:05;6.82;;;4.82;;
21754;SDS011;11039;50.028;19.938;2022-07-15T11:41:32;6.88;;;4.55;;
21754;SDS011;11039;50.028;19.938;2022-07-15T11:44:16;7.10;;;4.90;;
21754;SDS011;11039;50.028;19.938;2022-07-15T11:46:55;6.75;;;5.40;;
21754;SDS011;11039;50.028;19.938;2022-07-15T11:49:39;6.50;;;4.80;;
21754;SDS011;11039;50.028;19.938;2022-07-15T11:52:07;6.45;;;4.80;;
21754;SDS011;11039;50.028;19.938;2022-07-15T11:54:34;6.95;;;5.25;;
21754;SDS011;11039;50.028;19.938;2022-07-15T11:57:02;6.15;;;4.93;;
21754;SDS011;11039;50.028;19.938;2022-07-15T11:59:28;6.93;;;5.05;;
21754;SDS011;11039;50.028;19.938;2022-07-15T12:02:04;6.20;;;5.05;;
21754;SDS011;11039;50.028;19.938;2022-07-15T12:04:31;5.93;;;4.50;;
21754;SDS011;11039;50.028;19.938;2022-07-15T12:06:57;7.63;;;4.80;;
21754;SDS011;11039;50.028;19.938;2022-07-15T12:09:23;7.07;;;5.20;;
21754;SDS011;11039;50.028;19.938;2022-07-15T12:11:50;7.65;;;4.78;;
21754;SDS011;11039;50.028;19.938;2022-07-15T12:14:19;6.60;;;5.00;;
21754;SDS011;11039;50.028;19.938;2022-07-15T12:16:49;5.90;;;4.60;;
21754;SDS011;11039;50.028;19.938;2022-07-15T12:19:24;7.13;;;4.88;;
21754;SDS011;11039;50.028;19.938;2022-07-15T12:21:51;6.13;;;4.50;;
21754;SDS011;11039;50.028;19.938;2022-07-15T12:24:18;5.97;;;5.07;;
21754;SDS011;11039;50.028;19.938;2022-07-15T12:29:18;5.97;;;4.30;;
21754;SDS011;11039;50.028;19.938;2022-07-15T12:31:54;5.82;;;3.92;;
21754;SDS011;11039;50.028;19.938;2022-07-15T12:34:21;7.03;;;4.40;;
21754;SDS011;11039;50.028;19.938;2022-07-15T12:36:57;5.00;;;4.22;;
21754;SDS011;11039;50.028;19.938;2022-07-15T12:39:24;6.55;;;4.55;;
21754;SDS011;11039;50.028;19.938;2022-07-15T12:42:03;6.22;;;4.38;;
21754;SDS011;11039;50.028;19.938;2022-07-15T12:44:30;7.25;;;4.43;;
21754;SDS011;11039;50.028;19.938;2022-07-15T12:47:00;6.13;;;4.63;;
21754;SDS011;11039;50.028;19.938;2022-07-15T12:54:42;8.07;;;4.65;;
21754;SDS011;11039;50.028;19.938;2022-07-15T12:57:18;8.23;;;4.43;;
21754;SDS011;11039;50.028;19.938;2022-07-15T12:59:50;8.07;;;4.93;;
21754;SDS011;11039;50.028;19.938;2022-07-15T13:02:16;6.85;;;3.95;;
21754;SDS011;11039;50.028;19.938;2022-07-15T13:04:43;6.38;;;4.30;;
21754;SDS011;11039;50.028;19.938;2022-07-15T13:07:08;7.15;;;4.35;;
21754;SDS011;11039;50.028;19.938;2022-07-15T13:09:34;6.18;;;4.70;;
21754;SDS011;11039;50.028;19.938;2022-07-15T13:12:00;9.68;;;4.35;;
21754;SDS011;11039;50.028;19.938;2022-07-15T13:14:27;7.82;;;4.50;;
21754;SDS011;11039;50.028;19.938;2022-07-15T13:16:53;8.70;;;4.63;;
21754;SDS011;11039;50.028;19.938;2022-07-15T13:19:19;8.32;;;4.65;;
21754;SDS011;11039;50.028;19.938;2022-07-15T13:21:45;6.50;;;4.43;;
21754;SDS011;11039;50.028;19.938;2022-07-15T13:24:11;6.80;;;4.07;;
21754;SDS011;11039;50.028;19.938;2022-07-15T13:26:37;6.55;;;4.05;;
21754;SDS011;11039;50.028;19.938;2022-07-15T13:29:03;7.15;;;3.90;;
21754;SDS011;11039;50.028;19.938;2022-07-15T13:31:29;6.70;;;3.80;;
21754;SDS011;11039;50.028;19.938;2022-07-15T13:33:55;6.25;;;3.60;;
21754;SDS011;11039;50.028;19.938;2022-07-15T13:36:21;7.25;;;4.07;;
21754;SDS011;11039;50.028;19.938;2022-07-15T13:38:48;7.47;;;3.20;;
21754;SDS011;11039;50.028;19.938;2022-07-15T13:41:13;7.95;;;3.50;;
21754;SDS011;11039;50.028;19.938;2022-07-15T13:43:39;7.15;;;3.50;;
21754;SDS011;11039;50.028;19.938;2022-07-15T13:46:05;6.78;;;3.33;;
21754;SDS011;11039;50.028;19.938;2022-07-15T13:48:31;4.95;;;3.40;;
21754;SDS011;11039;50.028;19.938;2022-07-15T13:50:58;4.97;;;2.72;;
21754;SDS011;11039;50.028;19.938;2022-07-15T13:53:42;5.47;;;2.67;;
21754;SDS011;11039;50.028;19.938;2022-07-15T13:56:09;5.20;;;2.67;;
21754;SDS011;11039;50.028;19.938;2022-07-15T13:58:35;4.97;;;2.40;;
21754;SDS011;11039;50.028;19.938;2022-07-15T14:01:01;5.07;;;2.85;;
21754;SDS011;11039;50.028;19.938;2022-07-15T14:03:27;4.82;;;2.60;;
21754;SDS011;11039;50.028;19.938;2022-07-15T14:05:53;4.43;;;2.40;;
21754;SDS011;11039;50.028;19.938;2022-07-15T14:08:20;6.35;;;2.65;;
21754;SDS011;11039;50.028;19.938;2022-07-15T14:10:46;4.18;;;2.03;;
21754;SDS011;11039;50.028;19.938;2022-07-15T14:13:12;4.13;;;2.35;;
21754;SDS011;11039;50.028;19.938;2022-07-15T14:15:38;3.20;;;2.20;;
21754;SDS011;11039;50.028;19.938;2022-07-15T14:18:04;3.50;;;1.77;;
21754;SDS011;11039;50.028;19.938;2022-07-15T14:20:30;3.78;;;2.00;;
21754;SDS011;11039;50.028;19.938;2022-07-15T14:22:56;3.75;;;1.65;;
21754;SDS011;11039;50.028;19.938;2022-07-15T14:25:22;4.60;;;2.03;;
21754;SDS011;11039;50.028;19.938;2022-07-15T14:27:48;3.78;;;1.65;;
21754;SDS011;11039;50.028;19.938;2022-07-15T14:30:14;3.13;;;1.60;;
21754;SDS011;11039;50.028;19.938;2022-07-15T14:32:41;3.38;;;1.65;;
21754;SDS011;11039;50.028;19.938;2022-07-15T14:35:08;5.25;;;2.05;;
21754;SDS011;11039;50.028;19.938;2022-07-15T14:37:34;3.08;;;1.50;;
21754;SDS011;11039;50.028;19.938;2022-07-15T14:40:00;3.50;;;1.60;;
21754;SDS011;11039;50.028;19.938;2022-07-15T14:42:27;3.22;;;1.77;;
21754;SDS011;11039;50.028;19.938;2022-07-15T14:44:53;3.85;;;1.63;;
21754;SDS011;11039;50.028;19.938;2022-07-15T14:47:19;4.25;;;1.65;;
21754;SDS011;11039;50.028;19.938;2022-07-15T14:49:45;3.35;;;1.55;;
21754;SDS011;11039;50.028;19.938;2022-07-15T14:52:11;5.97;;;1.70;;
21754;SDS011;11039;50.028;19.938;2022-07-15T14:54:37;3.95;;;2.10;;
21754;SDS011;11039;50.028;19.938;2022-07-15T14:57:03;5.32;;;2.67;;
21754;SDS011;11039;50.028;19.938;2022-07-15T14:59:29;11.95;;;4.72;;
21754;SDS011;11039;50.028;19.938;2022-07-15T15:01:55;28.85;;;6.57;;
21754;SDS011;11039;50.028;19.938;2022-07-15T15:04:21;19.95;;;5.75;;
21754;SDS011;11039;50.028;19.938;2022-07-15T15:06:47;32.28;;;7.85;;